Time;durP1;ratioP1;P1;durP2;ratioP2;P2;SDS_P1;SDS_P2;PMS_P1;PMS_P2;Temp;Humidity;BMP_temperature;BMP_pressure;BME280_temperature;BME280_humidity;BME280_pressure;Samples;Min_cycle;Max_cycle;Signal;HPM_P1;HPM_P2
2023/03/13 00:01:20;;;;;;;7.90;4.30;;;8.30;99.90;;;;;;5024051;28;20454;-68
2023/03/13 00:03:46;;;;;;;12.10;4.10;;;8.40;99.90;;;;;;5024371;28;20973;-68
2023/03/13 00:06:12;;;;;;;14.67;5.17;;;8.30;99.90;;;;;;5024179;28;20415;-68
2023/03/13 00:08:38;;;;;;;8.47;4.23;;;8.30;99.90;;;;;;5023884;28;20941;-70
2023/03/13 00:11:05;;;;;;;7.83;4.30;;;8.30;99.90;;;;;;5024123;28;20447;-72
2023/03/13 00:13:31;;;;;;;11.63;4.27;;;8.30;99.90;;;;;;5014576;28;20922;-68
2023/03/13 00:16:07;;;;;;;8.27;3.80;;;8.40;99.90;;;;;;5013250;28;20566;-72
2023/03/13 00:18:33;;;;;;;12.20;4.97;;;8.30;99.90;;;;;;5024064;28;20598;-70
2023/03/13 00:21:04;;;;;;;9.17;3.77;;;8.40;99.90;;;;;;5024559;28;20428;-69
2023/03/13 00:23:30;;;;;;;8.30;4.10;;;8.50;99.90;;;;;;5025194;28;20245;-73
2023/03/13 00:25:57;;;;;;;7.33;4.20;;;8.40;99.90;;;;;;5015939;28;20910;-70
2023/03/13 00:28:23;;;;;;;10.97;4.17;;;8.50;99.90;;;;;;5003730;28;20800;-69
2023/03/13 00:30:48;;;;;;;10.77;4.57;;;8.50;99.90;;;;;;5004604;28;20422;-69
2023/03/13 00:33:14;;;;;;;10.03;4.90;;;8.50;99.90;;;;;;5004157;28;20184;-69
2023/03/13 00:35:39;;;;;;;7.73;4.37;;;8.50;99.90;;;;;;5004343;28;20206;-70
2023/03/13 00:38:05;;;;;;;7.07;3.63;;;8.50;99.90;;;;;;5004071;28;20309;-68
2023/03/13 00:40:30;;;;;;;8.00;3.90;;;8.60;99.90;;;;;;5004443;28;20284;-69
2023/03/13 00:42:56;;;;;;;7.33;3.60;;;8.70;99.90;;;;;;5004060;28;20243;-71
2023/03/13 00:45:21;;;;;;;7.43;3.43;;;8.80;99.90;;;;;;5003720;28;20202;-69
2023/03/13 00:47:48;;;;;;;9.50;4.10;;;8.80;99.90;;;;;;5005573;28;20179;-69
2023/03/13 00:50:14;;;;;;;6.43;3.27;;;8.90;99.90;;;;;;5003772;28;20180;-69
2023/03/13 00:52:40;;;;;;;8.03;3.77;;;9.00;99.90;;;;;;5003893;28;20838;-68
2023/03/13 00:55:06;;;;;;;11.37;4.87;;;9.00;99.90;;;;;;5003526;28;20225;-69
2023/03/13 00:57:36;;;;;;;5.83;3.30;;;9.10;99.90;;;;;;5021087;28;20227;-68
2023/03/13 01:00:05;;;;;;;10.10;3.63;;;9.10;99.90;;;;;;5012178;28;20810;-70
2023/03/13 01:02:30;;;;;;;11.80;3.53;;;9.20;99.90;;;;;;5003737;28;20520;-69
2023/03/13 01:04:56;;;;;;;7.50;3.50;;;9.30;99.90;;;;;;5008206;28;20526;-68
2023/03/13 01:07:21;;;;;;;10.23;3.70;;;9.30;99.90;;;;;;5024251;28;20183;-72
2023/03/13 01:09:47;;;;;;;12.13;4.20;;;9.30;99.90;;;;;;5023777;28;20193;-69
2023/03/13 01:12:12;;;;;;;6.80;3.07;;;9.30;99.90;;;;;;5004524;28;20185;-69
2023/03/13 01:14:38;;;;;;;11.47;4.17;;;9.30;99.90;;;;;;5006524;28;20202;-68
2023/03/13 01:17:04;;;;;;;7.73;3.57;;;9.30;99.90;;;;;;5003326;28;20270;-69
2023/03/13 01:19:29;;;;;;;8.53;3.83;;;9.40;99.90;;;;;;5003392;28;20238;-71
2023/03/13 01:21:55;;;;;;;9.20;3.90;;;9.40;99.90;;;;;;5003615;28;20179;-71
2023/03/13 01:24:21;;;;;;;9.30;3.70;;;9.50;99.90;;;;;;5001907;28;20230;-69
2023/03/13 01:26:46;;;;;;;6.57;3.60;;;9.50;99.90;;;;;;5002288;28;20479;-71
2023/03/13 01:29:13;;;;;;;9.03;3.70;;;9.40;99.90;;;;;;5015790;28;20419;-69
2023/03/13 01:31:38;;;;;;;6.00;3.27;;;9.50;99.90;;;;;;5022361;28;20880;-70
2023/03/13 01:34:05;;;;;;;9.33;3.77;;;9.60;99.90;;;;;;5022974;28;20586;-68
2023/03/13 01:36:32;;;;;;;9.80;4.20;;;9.50;99.90;;;;;;5022816;28;20186;-68
2023/03/13 01:38:59;;;;;;;10.10;4.17;;;9.50;99.90;;;;;;5022649;28;21485;-72
2023/03/13 01:41:27;;;;;;;9.07;3.30;;;9.70;99.90;;;;;;5022741;28;20424;-68
2023/03/13 01:43:54;;;;;;;8.03;3.70;;;9.70;99.90;;;;;;5010947;28;20434;-71
2023/03/13 01:46:26;;;;;;;8.07;3.33;;;9.70;99.90;;;;;;5002856;28;21337;-68
2023/03/13 01:48:59;;;;;;;13.03;3.60;;;9.60;99.90;;;;;;5021486;28;20531;-69
2023/03/13 01:51:40;;;;;;;7.63;3.17;;;9.70;99.90;;;;;;5023346;28;20797;-68
2023/03/13 01:54:17;;;;;;;9.20;3.80;;;9.70;99.90;;;;;;5022943;28;20444;-74
2023/03/13 01:56:46;;;;;;;9.43;3.70;;;9.80;99.90;;;;;;5023266;28;20418;-69
2023/03/13 01:59:15;;;;;;;9.20;4.10;;;9.80;99.90;;;;;;5022593;28;20484;-70
2023/03/13 02:01:44;;;;;;;7.57;3.20;;;9.80;99.90;;;;;;5022712;28;20413;-72
2023/03/13 02:04:11;;;;;;;8.43;3.03;;;9.80;99.90;;;;;;5022783;28;20434;-71
2023/03/13 02:06:40;;;;;;;7.10;3.17;;;9.90;99.90;;;;;;5022935;28;20453;-72
2023/03/13 02:09:11;;;;;;;7.30;3.10;;;10.00;99.90;;;;;;5023032;28;20418;-72
2023/03/13 02:11:56;;;;;;;7.40;3.70;;;9.90;99.90;;;;;;5021318;28;20425;-71
2023/03/13 02:14:25;;;;;;;6.80;3.80;;;9.90;99.90;;;;;;5006903;28;20451;-72
2023/03/13 02:16:52;;;;;;;11.27;3.20;;;9.90;99.90;;;;;;5000711;28;20439;-71
2023/03/13 02:19:43;;;;;;;10.43;3.27;;;9.90;99.90;;;;;;5002876;28;20515;-70
2023/03/13 02:22:27;;;;;;;6.23;3.20;;;10.00;99.90;;;;;;4991831;28;20446;-71
2023/03/13 02:25:22;;;;;;;10.27;3.47;;;10.10;99.90;;;;;;5002756;28;20807;-70
2023/03/13 02:27:50;;;;;;;8.73;3.07;;;10.10;99.90;;;;;;5015514;28;20425;-72
2023/03/13 02:30:16;;;;;;;8.43;3.00;;;10.20;99.90;;;;;;5019126;28;20554;-71
2023/03/13 02:32:43;;;;;;;5.43;2.20;;;10.20;99.90;;;;;;5020790;28;20479;-73
2023/03/13 02:35:12;;;;;;;4.90;2.40;;;10.10;99.90;;;;;;5002606;28;20212;-72
2023/03/13 02:37:41;;;;;;;7.97;3.13;;;10.10;99.90;;;;;;5002735;28;20418;-72
2023/03/13 02:40:10;;;;;;;4.70;1.97;;;10.20;99.90;;;;;;5007543;28;20417;-71
2023/03/13 02:42:39;;;;;;;7.53;2.40;;;10.20;99.90;;;;;;5007814;28;20414;-73
2023/03/13 02:45:05;;;;;;;5.50;2.27;;;10.30;99.90;;;;;;5006025;28;20447;-71
2023/03/13 02:47:31;;;;;;;4.20;2.40;;;10.40;99.90;;;;;;5006202;28;20418;-72
2023/03/13 02:49:57;;;;;;;5.30;2.07;;;10.50;99.90;;;;;;5007146;28;20852;-72
2023/03/13 02:52:27;;;;;;;3.80;1.83;;;10.70;99.90;;;;;;5006630;28;20522;-72
2023/03/13 02:55:16;;;;;;;6.00;1.60;;;10.80;99.90;;;;;;5006731;28;20192;-72
2023/03/13 02:57:42;;;;;;;5.37;2.27;;;10.90;99.90;;;;;;5006860;28;20490;-70
2023/03/13 03:00:11;;;;;;;3.00;1.80;;;11.00;99.90;;;;;;5006034;28;20459;-73
2023/03/13 03:02:37;;;;;;;5.60;2.10;;;10.90;99.90;;;;;;5006865;28;20177;-72
2023/03/13 03:05:04;;;;;;;6.20;2.43;;;11.00;99.90;;;;;;5006032;28;20627;-75
2023/03/13 03:07:29;;;;;;;3.93;1.83;;;11.10;99.90;;;;;;5005650;28;20821;-73
2023/03/13 03:09:55;;;;;;;4.17;2.10;;;11.00;99.90;;;;;;5005896;28;20724;-71
2023/03/13 03:12:21;;;;;;;3.30;1.77;;;11.00;99.90;;;;;;5005962;28;20882;-72
2023/03/13 03:14:46;;;;;;;4.90;1.70;;;11.00;99.90;;;;;;5005774;28;20208;-71
2023/03/13 03:17:12;;;;;;;7.60;2.10;;;11.10;99.90;;;;;;5005617;28;20274;-72
2023/03/13 03:19:37;;;;;;;4.90;1.90;;;11.20;99.90;;;;;;5005255;28;20582;-74
2023/03/13 03:22:03;;;;;;;3.03;1.57;;;11.20;99.90;;;;;;5005206;28;20250;-72
2023/03/13 03:24:29;;;;;;;3.50;1.77;;;11.30;99.90;;;;;;5003326;28;20686;-71
2023/03/13 03:26:54;;;;;;;4.57;1.90;;;11.20;99.90;;;;;;5005430;28;20948;-74
2023/03/13 03:29:20;;;;;;;5.63;1.60;;;11.20;99.90;;;;;;5004820;28;20564;-71
2023/03/13 03:31:45;;;;;;;3.80;1.20;;;11.10;99.90;;;;;;5004854;28;20244;-72
2023/03/13 03:34:11;;;;;;;5.00;1.73;;;11.00;99.90;;;;;;5005338;28;20216;-70
2023/03/13 03:36:37;;;;;;;3.03;1.63;;;11.10;99.90;;;;;;5005309;28;20184;-71
2023/03/13 03:39:03;;;;;;;3.90;1.70;;;11.20;99.90;;;;;;5004963;28;20235;-72
2023/03/13 03:41:29;;;;;;;3.40;1.30;;;11.30;99.90;;;;;;5005109;28;20194;-73
2023/03/13 03:43:55;;;;;;;5.37;1.60;;;11.30;99.90;;;;;;5005545;28;20439;-72
2023/03/13 03:46:20;;;;;;;2.83;1.40;;;11.30;99.90;;;;;;5004524;28;20632;-69
2023/03/13 03:48:46;;;;;;;5.90;2.53;;;11.10;99.90;;;;;;5005071;28;20187;-72
2023/03/13 03:51:12;;;;;;;2.30;1.43;;;11.10;99.90;;;;;;5003741;28;20279;-74
2023/03/13 03:53:38;;;;;;;4.00;1.80;;;11.20;99.90;;;;;;5004961;28;20209;-72
2023/03/13 03:56:04;;;;;;;2.57;1.43;;;11.10;99.90;;;;;;5004657;28;20188;-71
2023/03/13 03:58:29;;;;;;;3.57;1.20;;;11.30;99.90;;;;;;5004759;28;20963;-72
2023/03/13 04:00:56;;;;;;;7.33;1.33;;;11.30;99.90;;;;;;5005660;28;20185;-73
2023/03/13 04:03:22;;;;;;;1.43;1.10;;;11.40;99.90;;;;;;5003096;28;20196;-71
2023/03/13 04:05:48;;;;;;;2.77;1.33;;;11.40;99.90;;;;;;5004879;28;20931;-72
2023/03/13 04:08:14;;;;;;;2.60;1.40;;;11.60;99.90;;;;;;5004394;28;20909;-72
2023/03/13 04:10:39;;;;;;;2.90;1.10;;;11.70;99.90;;;;;;5004226;28;20646;-72
2023/03/13 04:13:05;;;;;;;2.33;1.27;;;11.80;99.90;;;;;;5004434;28;20186;-70
2023/03/13 04:15:30;;;;;;;2.57;1.20;;;12.00;99.90;;;;;;5003866;28;20196;-73
2023/03/13 04:17:56;;;;;;;10.93;1.23;;;12.00;99.90;;;;;;5004185;28;20205;-70
2023/03/13 04:20:22;;;;;;;3.17;1.23;;;12.00;99.90;;;;;;5004538;28;20250;-72
2023/03/13 04:22:47;;;;;;;1.80;0.90;;;12.10;99.90;;;;;;5006102;28;20244;-70
2023/03/13 04:25:13;;;;;;;1.73;0.77;;;12.20;99.90;;;;;;5023545;28;20211;-73
2023/03/13 04:27:38;;;;;;;2.50;1.00;;;12.20;99.90;;;;;;5023980;28;20179;-72
2023/03/13 04:30:05;;;;;;;2.63;0.80;;;12.30;99.90;;;;;;5013628;28;20275;-73
2023/03/13 04:32:31;;;;;;;3.40;0.90;;;12.30;99.90;;;;;;5004962;28;20226;-72
2023/03/13 04:34:57;;;;;;;2.30;0.70;;;12.40;99.90;;;;;;5022087;28;20501;-73
2023/03/13 04:37:23;;;;;;;3.70;1.00;;;12.50;99.90;;;;;;5024026;28;20576;-70
2023/03/13 04:39:48;;;;;;;1.30;1.10;;;12.60;99.90;;;;;;5023316;28;20421;-70
2023/03/13 04:42:14;;;;;;;2.30;0.90;;;12.60;99.90;;;;;;5023698;28;20187;-72
2023/03/13 04:44:40;;;;;;;1.63;0.90;;;12.50;99.90;;;;;;5023314;28;20294;-70
2023/03/13 04:47:05;;;;;;;1.77;0.90;;;12.50;99.90;;;;;;5023348;28;20308;-70
2023/03/13 04:49:31;;;;;;;1.50;0.90;;;12.60;99.90;;;;;;5019461;28;20317;-70
2023/03/13 04:51:57;;;;;;;1.83;1.00;;;12.60;99.90;;;;;;5023480;28;20188;-69
2023/03/13 04:54:22;;;;;;;2.57;1.10;;;12.70;99.90;;;;;;5023254;28;20202;-71
2023/03/13 04:56:48;;;;;;;1.50;1.00;;;12.80;99.90;;;;;;5005411;28;20183;-73
2023/03/13 04:59:14;;;;;;;1.40;0.63;;;12.80;99.90;;;;;;5019573;28;20782;-71
2023/03/13 05:01:41;;;;;;;1.20;0.70;;;12.80;99.90;;;;;;5003075;28;20265;-73
2023/03/13 05:04:07;;;;;;;2.00;0.80;;;12.80;99.90;;;;;;5003826;28;20440;-73
2023/03/13 05:06:32;;;;;;;2.17;1.03;;;12.70;99.90;;;;;;5004079;28;20423;-72
2023/03/13 05:08:58;;;;;;;1.50;0.87;;;12.70;99.90;;;;;;5023030;28;20654;-70
2023/03/13 05:11:23;;;;;;;2.13;0.90;;;12.70;99.90;;;;;;5017154;28;20188;-70
2023/03/13 05:13:49;;;;;;;3.10;1.10;;;12.70;99.90;;;;;;5003440;28;20200;-71
2023/03/13 05:16:14;;;;;;;1.97;1.10;;;12.70;99.90;;;;;;5002768;28;20194;-71
2023/03/13 05:18:40;;;;;;;1.10;0.73;;;12.70;99.90;;;;;;5003695;28;20989;-70
2023/03/13 05:21:06;;;;;;;1.57;0.70;;;12.70;99.90;;;;;;5003697;28;20539;-71
2023/03/13 05:23:32;;;;;;;1.73;1.00;;;12.60;99.90;;;;;;5003594;28;20207;-69
2023/03/13 05:25:58;;;;;;;1.30;0.80;;;12.60;99.90;;;;;;5003583;28;20403;-69
2023/03/13 05:28:24;;;;;;;1.13;0.90;;;12.70;99.90;;;;;;5004005;28;20912;-69
2023/03/13 05:30:49;;;;;;;1.30;0.97;;;12.70;99.90;;;;;;5008445;28;20417;-73
2023/03/13 05:33:15;;;;;;;1.67;0.80;;;12.70;99.90;;;;;;5031664;22;20238;-69
2023/03/13 05:35:41;;;;;;;1.70;0.70;;;12.70;99.90;;;;;;5004312;28;20207;-71
2023/03/13 05:38:07;;;;;;;0.90;0.70;;;12.60;99.90;;;;;;5004446;28;20197;-71
2023/03/13 05:40:33;;;;;;;1.70;1.03;;;12.70;99.90;;;;;;5009003;28;20416;-71
2023/03/13 05:42:58;;;;;;;1.03;0.60;;;12.70;99.90;;;;;;5022121;28;20210;-71
2023/03/13 05:45:24;;;;;;;3.33;1.27;;;12.80;99.90;;;;;;5023193;28;20626;-72
2023/03/13 05:47:50;;;;;;;2.20;1.07;;;12.80;99.90;;;;;;5012299;28;20709;-71
2023/03/13 05:50:16;;;;;;;2.00;0.80;;;12.90;99.90;;;;;;5012460;28;20500;-73
2023/03/13 05:52:41;;;;;;;1.17;0.80;;;12.80;99.90;;;;;;5023697;28;20202;-70
2023/03/13 05:55:07;;;;;;;1.87;0.80;;;12.80;99.90;;;;;;5023434;28;20958;-69
2023/03/13 05:57:33;;;;;;;1.93;0.97;;;12.80;99.90;;;;;;5014434;28;20190;-72
2023/03/13 05:59:58;;;;;;;1.97;0.90;;;12.90;99.90;;;;;;5003803;28;20945;-70
2023/03/13 06:02:24;;;;;;;1.83;0.87;;;12.90;99.90;;;;;;5022183;28;20195;-71
2023/03/13 06:04:50;;;;;;;0.90;0.67;;;13.00;99.90;;;;;;5004359;28;20172;-69
2023/03/13 06:07:15;;;;;;;2.00;0.90;;;13.00;99.90;;;;;;5017766;28;20184;-72
2023/03/13 06:09:41;;;;;;;1.40;0.80;;;12.90;99.90;;;;;;5016042;28;20793;-71
2023/03/13 06:12:11;;;;;;;1.07;0.80;;;12.90;99.90;;;;;;5023690;28;20202;-71
2023/03/13 06:14:36;;;;;;;2.53;0.70;;;12.90;99.90;;;;;;5005625;28;20262;-71
2023/03/13 06:17:03;;;;;;;0.70;0.60;;;13.00;99.90;;;;;;5013920;28;20554;-72
2023/03/13 06:19:29;;;;;;;0.80;0.70;;;13.00;99.90;;;;;;5005455;28;20695;-69
2023/03/13 06:21:54;;;;;;;1.30;0.70;;;13.00;99.90;;;;;;5005709;28;20605;-69
2023/03/13 06:24:20;;;;;;;1.30;0.90;;;13.10;99.90;;;;;;5006983;28;20271;-73
2023/03/13 06:26:47;;;;;;;0.90;0.70;;;13.20;99.90;;;;;;5010251;28;20305;-68
2023/03/13 06:29:13;;;;;;;3.03;0.80;;;13.20;99.90;;;;;;5014250;28;20178;-71
2023/03/13 06:31:38;;;;;;;5.43;1.13;;;13.20;99.90;;;;;;5012480;28;20422;-70
2023/03/13 06:34:04;;;;;;;0.90;0.70;;;13.20;99.90;;;;;;5013755;28;20696;-69
2023/03/13 06:36:30;;;;;;;1.53;0.67;;;13.30;99.90;;;;;;5011238;28;20187;-71
2023/03/13 06:38:55;;;;;;;1.40;0.67;;;13.30;99.90;;;;;;5007167;28;20678;-70
2023/03/13 06:41:21;;;;;;;1.20;0.70;;;13.40;99.90;;;;;;5010895;28;20874;-69
2023/03/13 06:43:46;;;;;;;2.80;0.70;;;13.50;99.90;;;;;;5007292;28;20238;-71
2023/03/13 06:46:17;;;;;;;1.50;0.60;;;13.50;99.90;;;;;;5011242;28;20232;-68
2023/03/13 06:48:43;;;;;;;2.67;0.70;;;13.40;99.90;;;;;;5011887;28;20187;-69
2023/03/13 06:51:13;;;;;;;4.77;0.70;;;13.50;99.90;;;;;;5007854;28;20424;-68
2023/03/13 06:53:39;;;;;;;1.73;0.83;;;13.70;99.90;;;;;;5013144;28;20493;-70
2023/03/13 06:56:05;;;;;;;0.87;0.63;;;13.80;99.90;;;;;;5006603;28;20510;-69
2023/03/13 06:58:31;;;;;;;1.83;0.70;;;13.90;99.90;;;;;;5006686;28;20223;-70
2023/03/13 07:00:57;;;;;;;1.83;0.80;;;13.90;99.90;;;;;;5005759;28;20820;-72
2023/03/13 07:03:23;;;;;;;1.90;0.80;;;13.80;99.90;;;;;;5010102;28;20290;-72
2023/03/13 07:05:54;;;;;;;2.70;0.83;;;13.80;99.90;;;;;;5006479;28;20186;-72
2023/03/13 07:08:20;;;;;;;2.90;0.80;;;13.70;99.90;;;;;;5023055;28;20184;-69
2023/03/13 07:10:49;;;;;;;1.00;0.63;;;13.60;99.90;;;;;;5026522;28;20473;-68
2023/03/13 07:13:15;;;;;;;0.80;0.60;;;13.70;99.90;;;;;;5022363;28;20209;-69
2023/03/13 07:15:40;;;;;;;1.67;0.70;;;13.60;99.90;;;;;;5025900;28;20422;-68
2023/03/13 07:18:06;;;;;;;1.57;0.60;;;13.50;99.90;;;;;;5018394;28;20210;-68
2023/03/13 07:20:32;;;;;;;1.20;0.70;;;13.60;99.90;;;;;;5016613;28;20175;-69
2023/03/13 07:22:58;;;;;;;1.00;0.60;;;13.50;99.90;;;;;;5016004;28;20193;-71
2023/03/13 07:25:23;;;;;;;1.03;0.70;;;13.50;99.90;;;;;;5016190;28;20416;-70
2023/03/13 07:27:51;;;;;;;1.00;0.80;;;13.60;99.90;;;;;;5014811;28;20185;-72
2023/03/13 07:30:17;;;;;;;1.17;1.00;;;13.60;99.90;;;;;;5013558;28;20214;-70
2023/03/13 07:32:42;;;;;;;2.00;0.83;;;13.60;99.90;;;;;;5016926;28;20540;-71
2023/03/13 07:35:08;;;;;;;1.20;0.70;;;13.70;99.90;;;;;;5014458;28;20291;-69
2023/03/13 07:37:33;;;;;;;1.97;1.10;;;13.80;99.90;;;;;;5018914;28;20592;-72
2023/03/13 07:39:59;;;;;;;1.90;0.77;;;14.00;99.90;;;;;;5018168;28;20187;-68
2023/03/13 07:42:24;;;;;;;4.30;1.20;;;13.90;99.90;;;;;;5017770;28;20322;-72
2023/03/13 07:44:50;;;;;;;1.47;0.80;;;14.10;99.90;;;;;;5012937;28;20190;-70
2023/03/13 07:47:15;;;;;;;1.10;0.60;;;14.00;99.90;;;;;;5006603;28;20190;-70
2023/03/13 07:49:42;;;;;;;1.10;0.90;;;13.80;99.90;;;;;;5020035;28;20224;-70
2023/03/13 07:52:08;;;;;;;1.47;0.90;;;13.90;99.90;;;;;;5008532;28;20207;-68
2023/03/13 07:54:34;;;;;;;1.10;0.67;;;14.00;99.90;;;;;;5004280;28;20433;-70
2023/03/13 07:57:01;;;;;;;1.50;0.70;;;14.00;99.90;;;;;;5006187;28;20188;-71
2023/03/13 07:59:26;;;;;;;1.33;0.70;;;14.00;99.90;;;;;;5008653;28;20205;-71
2023/03/13 08:01:52;;;;;;;1.73;0.70;;;14.10;99.90;;;;;;5024166;28;20437;-70
2023/03/13 08:04:18;;;;;;;0.90;0.70;;;14.20;99.90;;;;;;5022896;28;20646;-72
2023/03/13 08:06:43;;;;;;;1.77;0.60;;;14.10;99.90;;;;;;5005568;28;20177;-72
2023/03/13 08:09:09;;;;;;;1.97;0.97;;;14.10;99.90;;;;;;5005528;28;20546;-70
2023/03/13 08:11:36;;;;;;;3.70;0.90;;;14.10;99.90;;;;;;5005294;28;20274;-69
2023/03/13 08:14:02;;;;;;;1.73;0.80;;;14.30;99.90;;;;;;5012443;28;20197;-69
2023/03/13 08:16:33;;;;;;;1.47;0.80;;;14.40;99.90;;;;;;5024557;28;20557;-69
2023/03/13 08:18:59;;;;;;;1.03;0.70;;;14.50;99.90;;;;;;5022482;28;20188;-69
2023/03/13 08:21:29;;;;;;;2.40;1.33;;;14.50;99.90;;;;;;5012887;28;20568;-70
2023/03/13 08:23:57;;;;;;;2.00;1.20;;;14.70;99.90;;;;;;5006318;28;20519;-72
2023/03/13 08:26:26;;;;;;;1.30;0.60;;;14.80;99.90;;;;;;5013038;28;20591;-70
2023/03/13 08:28:54;;;;;;;1.00;0.80;;;14.80;99.90;;;;;;5022878;28;20433;-68
2023/03/13 08:31:23;;;;;;;1.27;1.00;;;15.00;99.90;;;;;;5004640;28;20445;-71
2023/03/13 08:33:49;;;;;;;2.30;0.87;;;15.00;99.90;;;;;;5014088;28;20933;-71
2023/03/13 08:36:22;;;;;;;1.80;0.80;;;15.10;99.90;;;;;;5004531;28;20856;-74
2023/03/13 08:38:48;;;;;;;1.60;0.97;;;15.10;99.90;;;;;;5019479;28;20451;-71
2023/03/13 08:41:18;;;;;;;2.83;1.33;;;15.30;99.90;;;;;;5021789;28;20414;-69
2023/03/13 08:43:45;;;;;;;2.03;1.37;;;15.50;99.90;;;;;;5023916;28;20427;-68
2023/03/13 08:46:12;;;;;;;1.57;0.87;;;15.50;99.90;;;;;;5018605;28;20557;-69
2023/03/13 08:48:37;;;;;;;3.13;1.30;;;15.30;99.90;;;;;;5016318;28;20440;-68
2023/03/13 08:51:05;;;;;;;2.20;1.23;;;15.20;99.90;;;;;;5023177;28;20584;-68
2023/03/13 08:53:32;;;;;;;1.27;0.97;;;15.20;99.90;;;;;;5012554;28;20201;-70
2023/03/13 08:55:58;;;;;;;3.10;1.10;;;15.10;99.90;;;;;;5004378;28;20425;-69
2023/03/13 08:58:23;;;;;;;2.90;1.20;;;15.10;99.90;;;;;;5003984;28;20457;-69
2023/03/13 09:00:49;;;;;;;2.00;1.07;;;15.20;99.90;;;;;;5009162;28;20426;-71
2023/03/13 09:03:16;;;;;;;2.80;0.83;;;15.20;99.90;;;;;;5003867;28;20203;-71
2023/03/13 09:05:41;;;;;;;1.53;1.20;;;15.30;99.90;;;;;;5004446;28;20208;-71
2023/03/13 09:08:07;;;;;;;2.63;1.00;;;15.50;99.90;;;;;;5004046;28;20417;-73
2023/03/13 09:10:33;;;;;;;2.60;1.07;;;15.50;99.90;;;;;;5010113;28;20275;-72
2023/03/13 09:12:59;;;;;;;2.00;0.97;;;15.60;99.90;;;;;;5007637;28;20201;-70
2023/03/13 09:15:24;;;;;;;1.67;1.23;;;15.60;99.90;;;;;;5002674;28;20971;-70
2023/03/13 09:17:50;;;;;;;3.33;1.23;;;15.50;99.90;;;;;;5021585;28;20187;-71
2023/03/13 09:20:17;;;;;;;2.50;1.23;;;15.40;99.90;;;;;;5010825;28;20170;-69
2023/03/13 09:22:43;;;;;;;1.33;1.03;;;15.40;99.90;;;;;;5004290;28;20550;-70
2023/03/13 09:25:09;;;;;;;7.07;1.67;;;15.50;99.90;;;;;;5009478;28;20412;-70
2023/03/13 09:27:35;;;;;;;2.40;1.20;;;15.50;99.90;;;;;;5017175;28;20188;-72
2023/03/13 09:30:00;;;;;;;1.40;0.90;;;15.50;99.90;;;;;;5012146;28;20421;-72
2023/03/13 09:32:26;;;;;;;4.43;1.13;;;15.60;99.90;;;;;;5015997;28;20216;-70
2023/03/13 09:34:51;;;;;;;3.10;1.10;;;15.90;99.90;;;;;;5004403;28;20277;-72
2023/03/13 09:37:17;;;;;;;2.40;1.10;;;15.80;99.90;;;;;;5004098;28;20182;-73
2023/03/13 09:39:43;;;;;;;3.40;1.10;;;15.80;99.90;;;;;;5004383;28;20684;-72
2023/03/13 09:42:12;;;;;;;1.37;0.83;;;15.80;99.90;;;;;;5006096;28;20686;-71
2023/03/13 09:44:44;;;;;;;1.37;1.00;;;15.70;99.90;;;;;;5006076;28;20708;-73
2023/03/13 09:47:28;;;;;;;3.63;1.50;;;15.80;99.90;;;;;;5014535;28;20412;-69
2023/03/13 09:50:20;;;;;;;1.50;1.10;;;15.90;99.90;;;;;;5020732;28;20425;-71
2023/03/13 09:52:52;;;;;;;1.83;1.40;;;16.00;99.90;;;;;;5007516;28;20563;-69
2023/03/13 09:55:29;;;;;;;2.93;0.83;;;16.10;99.90;;;;;;5007628;28;20924;-70
2023/03/13 09:58:01;;;;;;;2.00;1.43;;;16.10;99.90;;;;;;5019355;28;20416;-70
2023/03/13 10:00:32;;;;;;;2.70;1.00;;;16.20;99.90;;;;;;5013887;28;20413;-71
2023/03/13 10:03:09;;;;;;;2.90;1.50;;;16.20;99.90;;;;;;5009163;28;20442;-70
2023/03/13 10:05:38;;;;;;;2.03;1.10;;;16.40;99.90;;;;;;5026472;28;20449;-69
2023/03/13 10:08:27;;;;;;;3.70;1.53;;;16.50;99.90;;;;;;5027497;28;20476;-71
2023/03/13 10:11:06;;;;;;;3.23;1.20;;;16.60;99.90;;;;;;5008267;28;20454;-72
2023/03/13 10:13:32;;;;;;;4.53;1.60;;;16.70;99.90;;;;;;5007611;28;20445;-70
2023/03/13 10:16:08;;;;;;;4.10;1.50;;;17.10;99.90;;;;;;5018696;28;20410;-72
2023/03/13 10:18:34;;;;;;;1.63;1.00;;;17.30;99.90;;;;;;5020861;28;20507;-70
2023/03/13 10:21:15;;;;;;;2.17;1.50;;;17.20;99.90;;;;;;5027282;28;20414;-72
2023/03/13 10:23:49;;;;;;;2.83;1.30;;;17.50;99.90;;;;;;5027264;28;20430;-69
2023/03/13 10:26:20;;;;;;;3.80;1.27;;;17.70;99.90;;;;;;5026815;28;20402;-70
2023/03/13 10:28:46;;;;;;;1.77;1.40;;;17.50;99.90;;;;;;5019969;28;20413;-73
2023/03/13 10:31:38;;;;;;;3.13;1.87;;;17.50;99.90;;;;;;5012889;28;20836;-72
2023/03/13 10:34:09;;;;;;;1.70;1.23;;;17.60;99.90;;;;;;5021546;28;20430;-69
2023/03/13 10:36:44;;;;;;;2.63;1.67;;;17.80;99.90;;;;;;5024131;28;20493;-70
2023/03/13 10:39:18;;;;;;;1.53;1.40;;;18.00;99.90;;;;;;5026524;28;20457;-72
2023/03/13 10:41:45;;;;;;;3.47;1.30;;;18.50;99.90;;;;;;5021236;28;20517;-70
2023/03/13 10:44:20;;;;;;;4.50;1.80;;;18.90;99.90;;;;;;5006773;28;21017;-72
2023/03/13 10:46:49;;;;;;;3.77;1.60;;;19.10;99.90;;;;;;5019850;28;20809;-71
2023/03/13 10:49:20;;;;;;;3.80;1.70;;;18.50;99.90;;;;;;5026860;28;20411;-71
2023/03/13 10:51:47;;;;;;;4.47;1.40;;;18.30;99.90;;;;;;5008093;28;20813;-69
2023/03/13 10:54:35;;;;;;;4.33;1.90;;;18.20;99.90;;;;;;5006792;28;20585;-70
2023/03/13 10:57:31;;;;;;;2.63;1.53;;;18.40;99.90;;;;;;5006359;28;20442;-70
2023/03/13 10:59:57;;;;;;;3.00;1.50;;;18.60;99.90;;;;;;5012457;28;21040;-70
2023/03/13 11:02:32;;;;;;;1.97;1.60;;;18.90;99.90;;;;;;5025404;28;20982;-70
2023/03/13 11:04:58;;;;;;;4.40;1.60;;;18.90;99.90;;;;;;5006788;28;20441;-69
2023/03/13 11:07:37;;;;;;;2.60;1.40;;;19.10;99.90;;;;;;5024561;28;20422;-69
2023/03/13 11:10:23;;;;;;;1.80;1.37;;;19.30;99.90;;;;;;5026104;28;20926;-69
2023/03/13 11:12:52;;;;;;;3.63;1.57;;;20.00;99.90;;;;;;5006024;28;20443;-69
2023/03/13 11:15:50;;;;;;;3.53;1.63;;;20.20;99.90;;;;;;5025235;28;21162;-72
2023/03/13 11:18:43;;;;;;;3.90;1.80;;;19.70;99.90;;;;;;5025570;28;21037;-69
2023/03/13 11:21:44;;;;;;;2.17;1.70;;;19.50;99.90;;;;;;5006089;28;21675;-71
2023/03/13 11:24:25;;;;;;;3.43;1.43;;;19.40;99.90;;;;;;4988936;28;20426;-71
2023/03/13 11:27:12;;;;;;;1.83;1.50;;;19.70;99.90;;;;;;5012222;28;20566;-72
2023/03/13 11:30:02;;;;;;;1.77;1.57;;;20.00;99.90;;;;;;5019073;28;20470;-72
2023/03/13 11:32:41;;;;;;;4.53;2.00;;;19.90;99.90;;;;;;5019253;28;20481;-72
2023/03/13 11:35:44;;;;;;;1.70;1.30;;;19.80;99.90;;;;;;5054968;22;20489;-78
2023/03/13 11:38:35;;;;;;;2.40;1.30;;;19.80;99.90;;;;;;5013947;28;20488;-73
2023/03/13 11:41:38;;;;;;;1.63;1.17;;;21.50;99.90;;;;;;4983804;28;20421;-71
2023/03/13 11:44:03;;;;;;;2.30;1.40;;;23.30;98.30;;;;;;5017174;28;20707;-69
2023/03/13 11:47:08;;;;;;;1.60;1.27;;;24.80;94.40;;;;;;5015584;28;20414;-73
2023/03/13 11:49:46;;;;;;;2.10;1.20;;;24.30;94.20;;;;;;5008217;28;20172;-72
2023/03/13 11:52:20;;;;;;;2.40;1.63;;;24.00;94.50;;;;;;5009015;28;20402;-69
2023/03/13 11:54:52;;;;;;;3.13;1.43;;;23.70;93.80;;;;;;5008329;28;20430;-68
2023/03/13 11:57:29;;;;;;;5.70;1.90;;;22.70;95.40;;;;;;5009601;28;20403;-70
2023/03/13 12:00:23;;;;;;;3.80;1.40;;;22.00;96.40;;;;;;5013902;28;20855;-71
2023/03/13 12:03:09;;;;;;;1.73;1.30;;;22.20;96.90;;;;;;5015724;28;20471;-71
2023/03/13 12:05:44;;;;;;;3.67;1.40;;;22.10;96.00;;;;;;5021140;28;20512;-73
2023/03/13 12:08:35;;;;;;;1.83;1.10;;;22.50;96.20;;;;;;5021309;28;20441;-73
2023/03/13 12:11:24;;;;;;;7.87;1.37;;;22.30;96.30;;;;;;5015993;28;20411;-71
2023/03/13 12:14:14;;;;;;;2.47;1.20;;;23.20;95.00;;;;;;5020374;28;20449;-71
2023/03/13 12:16:42;;;;;;;3.47;1.50;;;23.80;94.00;;;;;;5006246;28;20428;-71
2023/03/13 12:19:13;;;;;;;2.40;1.03;;;24.20;94.00;;;;;;5024272;28;20464;-70
2023/03/13 12:21:52;;;;;;;1.43;1.10;;;25.30;92.20;;;;;;5022873;28;20397;-73
2023/03/13 12:24:36;;;;;;;5.57;1.60;;;24.50;91.30;;;;;;5022919;28;20433;-71
2023/03/13 12:27:18;;;;;;;2.83;1.10;;;24.20;92.20;;;;;;5012422;28;20480;-71
2023/03/13 12:29:48;;;;;;;4.60;1.37;;;24.10;91.60;;;;;;5012482;28;20463;-70
2023/03/13 12:32:24;;;;;;;1.40;1.30;;;24.30;92.10;;;;;;5012267;28;20431;-72
2023/03/13 12:34:59;;;;;;;2.30;1.33;;;24.00;91.80;;;;;;5019185;28;20461;-71
2023/03/13 12:38:02;;;;;;;1.90;1.30;;;25.20;90.90;;;;;;5019984;28;20497;-70
2023/03/13 12:41:08;;;;;;;3.37;1.20;;;25.40;90.00;;;;;;5015007;28;20427;-73
2023/03/13 12:43:39;;;;;;;1.53;1.03;;;25.40;88.80;;;;;;5018715;28;20418;-72
2023/03/13 12:46:37;;;;;;;1.77;1.00;;;25.30;89.00;;;;;;5010292;28;20754;-70
2023/03/13 12:49:11;;;;;;;3.20;1.30;;;26.10;89.00;;;;;;4985548;28;20431;-71
2023/03/13 12:51:56;;;;;;;3.23;1.30;;;26.20;85.30;;;;;;5015217;28;20462;-70
2023/03/13 12:55:02;;;;;;;3.67;1.03;;;26.20;85.70;;;;;;5021986;28;21001;-72
2023/03/13 12:57:56;;;;;;;2.17;1.00;;;26.60;83.40;;;;;;4958545;28;20434;-70
2023/03/13 13:00:25;;;;;;;4.80;1.20;;;28.00;79.80;;;;;;5006269;28;20419;-74
2023/03/13 13:03:09;;;;;;;2.30;1.20;;;28.00;77.80;;;;;;5017330;28;20464;-70